<?xml version="1.0" encoding="UTF-8" standalone="no" ?>
<gpx xmlns="http://www.topografix.com/GPX/1/1" xmlns:xsi="http://www.w3.org/2001/XMLSchema-instance" xsi:schemaLocation="http://www.topografix.com/GPX/1/1 http://www.topografix.com/GPX/1/1/gpx.xsd" version="1.1" creator="VisuGPX - https://www.visugpx.com">
  <metadata>
    <name>Laneuville MARCHE ADEPS 2018 (mars)</name>
    <desc><![CDATA[Petite marche bien sympa à faire en famille ]]></desc>
  </metadata>
  <trk>
    <name><![CDATA[Laneuville ]]></name>
    <trkseg>
      <trkpt lat="49.93254" lon="5.49388">
        <ele>529</ele>
        <time>2018-03-25T09:22:35Z</time>
      </trkpt>
      <trkpt lat="49.93218" lon="5.49393">
        <ele>532</ele>
        <time>2018-03-25T09:22:45Z</time>
      </trkpt>
      <trkpt lat="49.93226" lon="5.49396">
        <ele>533</ele>
        <time>2018-03-25T09:22:55Z</time>
      </trkpt>
      <trkpt lat="49.93232" lon="5.49401">
        <ele>533</ele>
        <time>2018-03-25T09:23:05Z</time>
      </trkpt>
      <trkpt lat="49.93234" lon="5.49402">
        <ele>532</ele>
        <time>2018-03-25T09:23:16Z</time>
      </trkpt>
      <trkpt lat="49.93241" lon="5.49393">
        <ele>532</ele>
        <time>2018-03-25T09:23:26Z</time>
      </trkpt>
      <trkpt lat="49.93249" lon="5.49387">
        <ele>531</ele>
        <time>2018-03-25T09:23:37Z</time>
      </trkpt>
      <trkpt lat="49.93255" lon="5.49379">
        <ele>530</ele>
        <time>2018-03-25T09:23:47Z</time>
      </trkpt>
      <trkpt lat="49.93264" lon="5.49369">
        <ele>530</ele>
        <time>2018-03-25T09:23:58Z</time>
      </trkpt>
      <trkpt lat="49.93273" lon="5.49358">
        <ele>530</ele>
        <time>2018-03-25T09:24:09Z</time>
      </trkpt>
      <trkpt lat="49.93282" lon="5.49351">
        <ele>529</ele>
        <time>2018-03-25T09:24:19Z</time>
      </trkpt>
      <trkpt lat="49.93288" lon="5.49349">
        <ele>527</ele>
        <time>2018-03-25T09:24:30Z</time>
      </trkpt>
      <trkpt lat="49.93288" lon="5.49348">
        <ele>528</ele>
        <time>2018-03-25T09:24:41Z</time>
      </trkpt>
      <trkpt lat="49.93289" lon="5.49348">
        <ele>527</ele>
        <time>2018-03-25T09:24:52Z</time>
      </trkpt>
      <trkpt lat="49.93289" lon="5.49349">
        <ele>528</ele>
        <time>2018-03-25T09:25:03Z</time>
      </trkpt>
      <trkpt lat="49.93291" lon="5.49351">
        <ele>528</ele>
        <time>2018-03-25T09:25:13Z</time>
      </trkpt>
      <trkpt lat="49.9329" lon="5.49348">
        <ele>528</ele>
        <time>2018-03-25T09:25:23Z</time>
      </trkpt>
      <trkpt lat="49.93287" lon="5.49351">
        <ele>528</ele>
        <time>2018-03-25T09:25:34Z</time>
      </trkpt>
      <trkpt lat="49.93288" lon="5.4935">
        <ele>528</ele>
        <time>2018-03-25T09:25:45Z</time>
      </trkpt>
      <trkpt lat="49.93288" lon="5.49351">
        <ele>528</ele>
        <time>2018-03-25T09:25:56Z</time>
      </trkpt>
      <trkpt lat="49.93287" lon="5.49353">
        <ele>527</ele>
        <time>2018-03-25T09:26:06Z</time>
      </trkpt>
      <trkpt lat="49.93285" lon="5.49356">
        <ele>528</ele>
        <time>2018-03-25T09:26:17Z</time>
      </trkpt>
      <trkpt lat="49.93286" lon="5.49356">
        <ele>528</ele>
        <time>2018-03-25T09:26:27Z</time>
      </trkpt>
      <trkpt lat="49.93287" lon="5.49355">
        <ele>528</ele>
        <time>2018-03-25T09:26:37Z</time>
      </trkpt>
      <trkpt lat="49.93287" lon="5.49355">
        <ele>528</ele>
        <time>2018-03-25T09:26:47Z</time>
      </trkpt>
      <trkpt lat="49.93289" lon="5.4935">
        <ele>527</ele>
        <time>2018-03-25T09:26:58Z</time>
      </trkpt>
      <trkpt lat="49.93297" lon="5.49349">
        <ele>526</ele>
        <time>2018-03-25T09:27:09Z</time>
      </trkpt>
      <trkpt lat="49.93303" lon="5.49359">
        <ele>526</ele>
        <time>2018-03-25T09:27:19Z</time>
      </trkpt>
      <trkpt lat="49.93308" lon="5.49374">
        <ele>525</ele>
        <time>2018-03-25T09:27:30Z</time>
      </trkpt>
      <trkpt lat="49.93312" lon="5.49387">
        <ele>525</ele>
        <time>2018-03-25T09:27:41Z</time>
      </trkpt>
      <trkpt lat="49.93317" lon="5.49402">
        <ele>526</ele>
        <time>2018-03-25T09:27:52Z</time>
      </trkpt>
      <trkpt lat="49.9332" lon="5.49413">
        <ele>526</ele>
        <time>2018-03-25T09:28:03Z</time>
      </trkpt>
      <trkpt lat="49.93323" lon="5.49427">
        <ele>526</ele>
        <time>2018-03-25T09:28:13Z</time>
      </trkpt>
      <trkpt lat="49.93322" lon="5.49425">
        <ele>525</ele>
        <time>2018-03-25T09:28:23Z</time>
      </trkpt>
      <trkpt lat="49.93324" lon="5.49438">
        <ele>526</ele>
        <time>2018-03-25T09:28:33Z</time>
      </trkpt>
      <trkpt lat="49.93328" lon="5.49454">
        <ele>526</ele>
        <time>2018-03-25T09:28:44Z</time>
      </trkpt>
      <trkpt lat="49.93334" lon="5.49472">
        <ele>526</ele>
        <time>2018-03-25T09:28:55Z</time>
      </trkpt>
      <trkpt lat="49.93336" lon="5.49489">
        <ele>526</ele>
        <time>2018-03-25T09:29:06Z</time>
      </trkpt>
      <trkpt lat="49.9334" lon="5.49503">
        <ele>526</ele>
        <time>2018-03-25T09:29:16Z</time>
      </trkpt>
      <trkpt lat="49.93343" lon="5.49519">
        <ele>526</ele>
        <time>2018-03-25T09:29:27Z</time>
      </trkpt>
      <trkpt lat="49.93345" lon="5.49528">
        <ele>526</ele>
        <time>2018-03-25T09:29:37Z</time>
      </trkpt>
      <trkpt lat="49.93351" lon="5.49545">
        <ele>527</ele>
        <time>2018-03-25T09:29:48Z</time>
      </trkpt>
      <trkpt lat="49.93356" lon="5.49559">
        <ele>526</ele>
        <time>2018-03-25T09:29:58Z</time>
      </trkpt>
      <trkpt lat="49.93361" lon="5.49575">
        <ele>527</ele>
        <time>2018-03-25T09:30:09Z</time>
      </trkpt>
      <trkpt lat="49.93367" lon="5.49591">
        <ele>528</ele>
        <time>2018-03-25T09:30:20Z</time>
      </trkpt>
      <trkpt lat="49.93373" lon="5.49608">
        <ele>527</ele>
        <time>2018-03-25T09:30:31Z</time>
      </trkpt>
      <trkpt lat="49.93379" lon="5.49623">
        <ele>528</ele>
        <time>2018-03-25T09:30:41Z</time>
      </trkpt>
      <trkpt lat="49.93386" lon="5.49639">
        <ele>528</ele>
        <time>2018-03-25T09:30:52Z</time>
      </trkpt>
      <trkpt lat="49.93392" lon="5.49651">
        <ele>528</ele>
        <time>2018-03-25T09:31:03Z</time>
      </trkpt>
      <trkpt lat="49.93394" lon="5.4966">
        <ele>528</ele>
        <time>2018-03-25T09:31:13Z</time>
      </trkpt>
      <trkpt lat="49.93394" lon="5.49662">
        <ele>528</ele>
        <time>2018-03-25T09:31:24Z</time>
      </trkpt>
      <trkpt lat="49.93398" lon="5.49673">
        <ele>528</ele>
        <time>2018-03-25T09:31:35Z</time>
      </trkpt>
      <trkpt lat="49.93403" lon="5.49684">
        <ele>528</ele>
        <time>2018-03-25T09:31:45Z</time>
      </trkpt>
      <trkpt lat="49.93408" lon="5.49694">
        <ele>528</ele>
        <time>2018-03-25T09:31:56Z</time>
      </trkpt>
      <trkpt lat="49.93412" lon="5.49703">
        <ele>528</ele>
        <time>2018-03-25T09:32:07Z</time>
      </trkpt>
      <trkpt lat="49.93419" lon="5.49716">
        <ele>528</ele>
        <time>2018-03-25T09:32:18Z</time>
      </trkpt>
      <trkpt lat="49.93423" lon="5.49729">
        <ele>528</ele>
        <time>2018-03-25T09:32:28Z</time>
      </trkpt>
      <trkpt lat="49.93429" lon="5.49743">
        <ele>529</ele>
        <time>2018-03-25T09:32:39Z</time>
      </trkpt>
      <trkpt lat="49.93434" lon="5.49757">
        <ele>529</ele>
        <time>2018-03-25T09:32:49Z</time>
      </trkpt>
      <trkpt lat="49.93438" lon="5.49766">
        <ele>529</ele>
        <time>2018-03-25T09:33:01Z</time>
      </trkpt>
      <trkpt lat="49.93438" lon="5.49768">
        <ele>528</ele>
        <time>2018-03-25T09:33:13Z</time>
      </trkpt>
      <trkpt lat="49.93438" lon="5.49769">
        <ele>528</ele>
        <time>2018-03-25T09:33:23Z</time>
      </trkpt>
      <trkpt lat="49.93441" lon="5.49776">
        <ele>529</ele>
        <time>2018-03-25T09:33:33Z</time>
      </trkpt>
      <trkpt lat="49.93454" lon="5.49789">
        <ele>529</ele>
        <time>2018-03-25T09:33:44Z</time>
      </trkpt>
      <trkpt lat="49.93463" lon="5.49799">
        <ele>530</ele>
        <time>2018-03-25T09:33:55Z</time>
      </trkpt>
      <trkpt lat="49.93467" lon="5.49803">
        <ele>530</ele>
        <time>2018-03-25T09:34:05Z</time>
      </trkpt>
      <trkpt lat="49.93469" lon="5.49804">
        <ele>529</ele>
        <time>2018-03-25T09:34:16Z</time>
      </trkpt>
      <trkpt lat="49.9347" lon="5.49807">
        <ele>530</ele>
        <time>2018-03-25T09:34:26Z</time>
      </trkpt>
      <trkpt lat="49.93474" lon="5.49808">
        <ele>529</ele>
        <time>2018-03-25T09:34:37Z</time>
      </trkpt>
      <trkpt lat="49.93482" lon="5.49819">
        <ele>529</ele>
        <time>2018-03-25T09:34:47Z</time>
      </trkpt>
      <trkpt lat="49.93489" lon="5.4983">
        <ele>529</ele>
        <time>2018-03-25T09:34:57Z</time>
      </trkpt>
      <trkpt lat="49.93497" lon="5.49839">
        <ele>529</ele>
        <time>2018-03-25T09:35:07Z</time>
      </trkpt>
      <trkpt lat="49.93504" lon="5.49851">
        <ele>529</ele>
        <time>2018-03-25T09:35:18Z</time>
      </trkpt>
      <trkpt lat="49.93512" lon="5.4986">
        <ele>528</ele>
        <time>2018-03-25T09:35:28Z</time>
      </trkpt>
      <trkpt lat="49.93517" lon="5.49872">
        <ele>528</ele>
        <time>2018-03-25T09:35:38Z</time>
      </trkpt>
      <trkpt lat="49.93523" lon="5.49884">
        <ele>528</ele>
        <time>2018-03-25T09:35:49Z</time>
      </trkpt>
      <trkpt lat="49.93527" lon="5.49894">
        <ele>528</ele>
        <time>2018-03-25T09:35:59Z</time>
      </trkpt>
      <trkpt lat="49.93534" lon="5.49904">
        <ele>527</ele>
        <time>2018-03-25T09:36:09Z</time>
      </trkpt>
      <trkpt lat="49.9354" lon="5.49917">
        <ele>526</ele>
        <time>2018-03-25T09:36:20Z</time>
      </trkpt>
      <trkpt lat="49.93551" lon="5.49932">
        <ele>527</ele>
        <time>2018-03-25T09:36:31Z</time>
      </trkpt>
      <trkpt lat="49.9356" lon="5.49948">
        <ele>526</ele>
        <time>2018-03-25T09:36:42Z</time>
      </trkpt>
      <trkpt lat="49.93567" lon="5.49964">
        <ele>527</ele>
        <time>2018-03-25T09:36:53Z</time>
      </trkpt>
      <trkpt lat="49.93575" lon="5.49979">
        <ele>527</ele>
        <time>2018-03-25T09:37:04Z</time>
      </trkpt>
      <trkpt lat="49.93581" lon="5.49995">
        <ele>526</ele>
        <time>2018-03-25T09:37:14Z</time>
      </trkpt>
      <trkpt lat="49.93589" lon="5.50011">
        <ele>526</ele>
        <time>2018-03-25T09:37:25Z</time>
      </trkpt>
      <trkpt lat="49.93595" lon="5.50026">
        <ele>526</ele>
        <time>2018-03-25T09:37:35Z</time>
      </trkpt>
      <trkpt lat="49.93602" lon="5.50041">
        <ele>526</ele>
        <time>2018-03-25T09:37:45Z</time>
      </trkpt>
      <trkpt lat="49.93608" lon="5.50058">
        <ele>525</ele>
        <time>2018-03-25T09:37:56Z</time>
      </trkpt>
      <trkpt lat="49.93613" lon="5.50075">
        <ele>525</ele>
        <time>2018-03-25T09:38:07Z</time>
      </trkpt>
      <trkpt lat="49.93617" lon="5.50092">
        <ele>524</ele>
        <time>2018-03-25T09:38:18Z</time>
      </trkpt>
      <trkpt lat="49.93621" lon="5.50109">
        <ele>525</ele>
        <time>2018-03-25T09:38:29Z</time>
      </trkpt>
      <trkpt lat="49.93623" lon="5.50126">
        <ele>524</ele>
        <time>2018-03-25T09:38:39Z</time>
      </trkpt>
      <trkpt lat="49.93627" lon="5.50142">
        <ele>524</ele>
        <time>2018-03-25T09:38:49Z</time>
      </trkpt>
      <trkpt lat="49.93629" lon="5.5016">
        <ele>523</ele>
        <time>2018-03-25T09:38:59Z</time>
      </trkpt>
      <trkpt lat="49.93631" lon="5.50177">
        <ele>523</ele>
        <time>2018-03-25T09:39:09Z</time>
      </trkpt>
      <trkpt lat="49.93633" lon="5.50194">
        <ele>522</ele>
        <time>2018-03-25T09:39:19Z</time>
      </trkpt>
      <trkpt lat="49.93636" lon="5.50214">
        <ele>522</ele>
        <time>2018-03-25T09:39:30Z</time>
      </trkpt>
      <trkpt lat="49.93641" lon="5.50231">
        <ele>521</ele>
        <time>2018-03-25T09:39:40Z</time>
      </trkpt>
      <trkpt lat="49.93647" lon="5.50248">
        <ele>521</ele>
        <time>2018-03-25T09:39:51Z</time>
      </trkpt>
      <trkpt lat="49.93651" lon="5.50264">
        <ele>521</ele>
        <time>2018-03-25T09:40:01Z</time>
      </trkpt>
      <trkpt lat="49.93655" lon="5.50281">
        <ele>521</ele>
        <time>2018-03-25T09:40:12Z</time>
      </trkpt>
      <trkpt lat="49.93657" lon="5.50299">
        <ele>520</ele>
        <time>2018-03-25T09:40:22Z</time>
      </trkpt>
      <trkpt lat="49.93657" lon="5.50316">
        <ele>521</ele>
        <time>2018-03-25T09:40:32Z</time>
      </trkpt>
      <trkpt lat="49.93656" lon="5.50333">
        <ele>521</ele>
        <time>2018-03-25T09:40:43Z</time>
      </trkpt>
      <trkpt lat="49.93657" lon="5.50349">
        <ele>520</ele>
        <time>2018-03-25T09:40:53Z</time>
      </trkpt>
      <trkpt lat="49.9366" lon="5.50364">
        <ele>521</ele>
        <time>2018-03-25T09:41:03Z</time>
      </trkpt>
      <trkpt lat="49.93663" lon="5.5038">
        <ele>520</ele>
        <time>2018-03-25T09:41:14Z</time>
      </trkpt>
      <trkpt lat="49.93666" lon="5.50396">
        <ele>521</ele>
        <time>2018-03-25T09:41:24Z</time>
      </trkpt>
      <trkpt lat="49.93668" lon="5.5041">
        <ele>521</ele>
        <time>2018-03-25T09:41:34Z</time>
      </trkpt>
      <trkpt lat="49.93671" lon="5.50424">
        <ele>522</ele>
        <time>2018-03-25T09:41:44Z</time>
      </trkpt>
      <trkpt lat="49.93676" lon="5.50438">
        <ele>522</ele>
        <time>2018-03-25T09:41:55Z</time>
      </trkpt>
      <trkpt lat="49.93679" lon="5.50451">
        <ele>522</ele>
        <time>2018-03-25T09:42:05Z</time>
      </trkpt>
      <trkpt lat="49.93683" lon="5.50464">
        <ele>522</ele>
        <time>2018-03-25T09:42:15Z</time>
      </trkpt>
      <trkpt lat="49.93687" lon="5.50478">
        <ele>522</ele>
        <time>2018-03-25T09:42:26Z</time>
      </trkpt>
      <trkpt lat="49.93689" lon="5.50489">
        <ele>523</ele>
        <time>2018-03-25T09:42:36Z</time>
      </trkpt>
      <trkpt lat="49.93694" lon="5.50505">
        <ele>523</ele>
        <time>2018-03-25T09:42:47Z</time>
      </trkpt>
      <trkpt lat="49.93699" lon="5.50519">
        <ele>523</ele>
        <time>2018-03-25T09:42:57Z</time>
      </trkpt>
      <trkpt lat="49.93705" lon="5.50536">
        <ele>523</ele>
        <time>2018-03-25T09:43:08Z</time>
      </trkpt>
      <trkpt lat="49.9371" lon="5.5055">
        <ele>524</ele>
        <time>2018-03-25T09:43:18Z</time>
      </trkpt>
      <trkpt lat="49.93715" lon="5.50563">
        <ele>524</ele>
        <time>2018-03-25T09:43:28Z</time>
      </trkpt>
      <trkpt lat="49.9372" lon="5.50581">
        <ele>524</ele>
        <time>2018-03-25T09:43:39Z</time>
      </trkpt>
      <trkpt lat="49.93725" lon="5.50597">
        <ele>524</ele>
        <time>2018-03-25T09:43:49Z</time>
      </trkpt>
      <trkpt lat="49.93729" lon="5.50612">
        <ele>524</ele>
        <time>2018-03-25T09:43:59Z</time>
      </trkpt>
      <trkpt lat="49.93732" lon="5.50625">
        <ele>525</ele>
        <time>2018-03-25T09:44:10Z</time>
      </trkpt>
      <trkpt lat="49.93734" lon="5.50639">
        <ele>525</ele>
        <time>2018-03-25T09:44:20Z</time>
      </trkpt>
      <trkpt lat="49.93739" lon="5.50655">
        <ele>525</ele>
        <time>2018-03-25T09:44:31Z</time>
      </trkpt>
      <trkpt lat="49.93743" lon="5.50672">
        <ele>525</ele>
        <time>2018-03-25T09:44:42Z</time>
      </trkpt>
      <trkpt lat="49.93747" lon="5.50686">
        <ele>525</ele>
        <time>2018-03-25T09:44:52Z</time>
      </trkpt>
      <trkpt lat="49.93752" lon="5.50703">
        <ele>526</ele>
        <time>2018-03-25T09:45:03Z</time>
      </trkpt>
      <trkpt lat="49.93754" lon="5.50712">
        <ele>526</ele>
        <time>2018-03-25T09:45:14Z</time>
      </trkpt>
      <trkpt lat="49.93758" lon="5.50727">
        <ele>526</ele>
        <time>2018-03-25T09:45:24Z</time>
      </trkpt>
      <trkpt lat="49.93762" lon="5.50743">
        <ele>526</ele>
        <time>2018-03-25T09:45:35Z</time>
      </trkpt>
      <trkpt lat="49.93765" lon="5.50757">
        <ele>526</ele>
        <time>2018-03-25T09:45:45Z</time>
      </trkpt>
      <trkpt lat="49.93769" lon="5.50774">
        <ele>526</ele>
        <time>2018-03-25T09:45:56Z</time>
      </trkpt>
      <trkpt lat="49.93774" lon="5.50789">
        <ele>527</ele>
        <time>2018-03-25T09:46:06Z</time>
      </trkpt>
      <trkpt lat="49.93778" lon="5.50806">
        <ele>527</ele>
        <time>2018-03-25T09:46:16Z</time>
      </trkpt>
      <trkpt lat="49.93782" lon="5.50823">
        <ele>527</ele>
        <time>2018-03-25T09:46:27Z</time>
      </trkpt>
      <trkpt lat="49.93784" lon="5.50832">
        <ele>527</ele>
        <time>2018-03-25T09:46:37Z</time>
      </trkpt>
      <trkpt lat="49.93784" lon="5.50842">
        <ele>527</ele>
        <time>2018-03-25T09:46:47Z</time>
      </trkpt>
      <trkpt lat="49.93788" lon="5.50858">
        <ele>528</ele>
        <time>2018-03-25T09:46:57Z</time>
      </trkpt>
      <trkpt lat="49.9379" lon="5.50876">
        <ele>527</ele>
        <time>2018-03-25T09:47:08Z</time>
      </trkpt>
      <trkpt lat="49.93792" lon="5.50891">
        <ele>528</ele>
        <time>2018-03-25T09:47:18Z</time>
      </trkpt>
      <trkpt lat="49.93793" lon="5.50906">
        <ele>528</ele>
        <time>2018-03-25T09:47:28Z</time>
      </trkpt>
      <trkpt lat="49.93792" lon="5.5092">
        <ele>529</ele>
        <time>2018-03-25T09:47:39Z</time>
      </trkpt>
      <trkpt lat="49.93796" lon="5.50934">
        <ele>529</ele>
        <time>2018-03-25T09:47:50Z</time>
      </trkpt>
      <trkpt lat="49.938" lon="5.50943">
        <ele>529</ele>
        <time>2018-03-25T09:48:00Z</time>
      </trkpt>
      <trkpt lat="49.93805" lon="5.50953">
        <ele>529</ele>
        <time>2018-03-25T09:48:10Z</time>
      </trkpt>
      <trkpt lat="49.93811" lon="5.50968">
        <ele>530</ele>
        <time>2018-03-25T09:48:21Z</time>
      </trkpt>
      <trkpt lat="49.93815" lon="5.50979">
        <ele>530</ele>
        <time>2018-03-25T09:48:31Z</time>
      </trkpt>
      <trkpt lat="49.93819" lon="5.50989">
        <ele>530</ele>
        <time>2018-03-25T09:48:42Z</time>
      </trkpt>
      <trkpt lat="49.93823" lon="5.51">
        <ele>531</ele>
        <time>2018-03-25T09:48:52Z</time>
      </trkpt>
      <trkpt lat="49.93828" lon="5.51012">
        <ele>530</ele>
        <time>2018-03-25T09:49:03Z</time>
      </trkpt>
      <trkpt lat="49.93832" lon="5.51023">
        <ele>531</ele>
        <time>2018-03-25T09:49:14Z</time>
      </trkpt>
      <trkpt lat="49.93837" lon="5.5103">
        <ele>531</ele>
        <time>2018-03-25T09:49:25Z</time>
      </trkpt>
      <trkpt lat="49.9384" lon="5.51041">
        <ele>530</ele>
        <time>2018-03-25T09:49:36Z</time>
      </trkpt>
      <trkpt lat="49.93839" lon="5.5105">
        <ele>531</ele>
        <time>2018-03-25T09:49:46Z</time>
      </trkpt>
      <trkpt lat="49.93839" lon="5.5106">
        <ele>531</ele>
        <time>2018-03-25T09:49:56Z</time>
      </trkpt>
      <trkpt lat="49.93838" lon="5.51074">
        <ele>531</ele>
        <time>2018-03-25T09:50:06Z</time>
      </trkpt>
      <trkpt lat="49.93838" lon="5.51089">
        <ele>532</ele>
        <time>2018-03-25T09:50:17Z</time>
      </trkpt>
      <trkpt lat="49.93839" lon="5.51105">
        <ele>532</ele>
        <time>2018-03-25T09:50:27Z</time>
      </trkpt>
      <trkpt lat="49.93843" lon="5.51123">
        <ele>532</ele>
        <time>2018-03-25T09:50:38Z</time>
      </trkpt>
      <trkpt lat="49.93843" lon="5.51131">
        <ele>532</ele>
        <time>2018-03-25T09:50:48Z</time>
      </trkpt>
      <trkpt lat="49.93841" lon="5.51144">
        <ele>533</ele>
        <time>2018-03-25T09:50:59Z</time>
      </trkpt>
      <trkpt lat="49.93841" lon="5.51158">
        <ele>533</ele>
        <time>2018-03-25T09:51:10Z</time>
      </trkpt>
      <trkpt lat="49.93843" lon="5.51169">
        <ele>533</ele>
        <time>2018-03-25T09:51:20Z</time>
      </trkpt>
      <trkpt lat="49.93846" lon="5.51185">
        <ele>533</ele>
        <time>2018-03-25T09:51:31Z</time>
      </trkpt>
      <trkpt lat="49.93845" lon="5.51199">
        <ele>533</ele>
        <time>2018-03-25T09:51:41Z</time>
      </trkpt>
      <trkpt lat="49.93838" lon="5.51216">
        <ele>534</ele>
        <time>2018-03-25T09:51:52Z</time>
      </trkpt>
      <trkpt lat="49.93841" lon="5.51231">
        <ele>535</ele>
        <time>2018-03-25T09:52:03Z</time>
      </trkpt>
      <trkpt lat="49.93842" lon="5.51245">
        <ele>535</ele>
        <time>2018-03-25T09:52:14Z</time>
      </trkpt>
      <trkpt lat="49.93844" lon="5.51258">
        <ele>535</ele>
        <time>2018-03-25T09:52:24Z</time>
      </trkpt>
      <trkpt lat="49.93846" lon="5.5127">
        <ele>535</ele>
        <time>2018-03-25T09:52:34Z</time>
      </trkpt>
      <trkpt lat="49.93845" lon="5.51286">
        <ele>536</ele>
        <time>2018-03-25T09:52:44Z</time>
      </trkpt>
      <trkpt lat="49.93845" lon="5.513">
        <ele>536</ele>
        <time>2018-03-25T09:52:54Z</time>
      </trkpt>
      <trkpt lat="49.93845" lon="5.51316">
        <ele>536</ele>
        <time>2018-03-25T09:53:05Z</time>
      </trkpt>
      <trkpt lat="49.93843" lon="5.51333">
        <ele>537</ele>
        <time>2018-03-25T09:53:16Z</time>
      </trkpt>
      <trkpt lat="49.93842" lon="5.51345">
        <ele>537</ele>
        <time>2018-03-25T09:53:26Z</time>
      </trkpt>
      <trkpt lat="49.93838" lon="5.5136">
        <ele>536</ele>
        <time>2018-03-25T09:53:37Z</time>
      </trkpt>
      <trkpt lat="49.93832" lon="5.51374">
        <ele>537</ele>
        <time>2018-03-25T09:53:47Z</time>
      </trkpt>
      <trkpt lat="49.9383" lon="5.51385">
        <ele>537</ele>
        <time>2018-03-25T09:53:57Z</time>
      </trkpt>
      <trkpt lat="49.93824" lon="5.514">
        <ele>537</ele>
        <time>2018-03-25T09:54:08Z</time>
      </trkpt>
      <trkpt lat="49.93823" lon="5.51411">
        <ele>537</ele>
        <time>2018-03-25T09:54:18Z</time>
      </trkpt>
      <trkpt lat="49.93824" lon="5.51417">
        <ele>537</ele>
        <time>2018-03-25T09:54:28Z</time>
      </trkpt>
      <trkpt lat="49.93823" lon="5.51424">
        <ele>537</ele>
        <time>2018-03-25T09:54:39Z</time>
      </trkpt>
      <trkpt lat="49.93816" lon="5.51435">
        <ele>538</ele>
        <time>2018-03-25T09:54:49Z</time>
      </trkpt>
      <trkpt lat="49.93813" lon="5.51445">
        <ele>538</ele>
        <time>2018-03-25T09:54:59Z</time>
      </trkpt>
      <trkpt lat="49.93807" lon="5.51459">
        <ele>538</ele>
        <time>2018-03-25T09:55:10Z</time>
      </trkpt>
      <trkpt lat="49.93805" lon="5.51474">
        <ele>538</ele>
        <time>2018-03-25T09:55:20Z</time>
      </trkpt>
      <trkpt lat="49.93803" lon="5.5149">
        <ele>539</ele>
        <time>2018-03-25T09:55:31Z</time>
      </trkpt>
      <trkpt lat="49.93802" lon="5.51501">
        <ele>538</ele>
        <time>2018-03-25T09:55:42Z</time>
      </trkpt>
      <trkpt lat="49.938" lon="5.51516">
        <ele>538</ele>
        <time>2018-03-25T09:55:52Z</time>
      </trkpt>
      <trkpt lat="49.93798" lon="5.5153">
        <ele>539</ele>
        <time>2018-03-25T09:56:03Z</time>
      </trkpt>
      <trkpt lat="49.93798" lon="5.51538">
        <ele>539</ele>
        <time>2018-03-25T09:56:13Z</time>
      </trkpt>
      <trkpt lat="49.93798" lon="5.51549">
        <ele>538</ele>
        <time>2018-03-25T09:56:23Z</time>
      </trkpt>
      <trkpt lat="49.93796" lon="5.5156">
        <ele>539</ele>
        <time>2018-03-25T09:56:33Z</time>
      </trkpt>
      <trkpt lat="49.93793" lon="5.51571">
        <ele>539</ele>
        <time>2018-03-25T09:56:43Z</time>
      </trkpt>
      <trkpt lat="49.93793" lon="5.51582">
        <ele>539</ele>
        <time>2018-03-25T09:56:54Z</time>
      </trkpt>
      <trkpt lat="49.93794" lon="5.51593">
        <ele>539</ele>
        <time>2018-03-25T09:57:05Z</time>
      </trkpt>
      <trkpt lat="49.93791" lon="5.51608">
        <ele>540</ele>
        <time>2018-03-25T09:57:15Z</time>
      </trkpt>
      <trkpt lat="49.9379" lon="5.51611">
        <ele>540</ele>
        <time>2018-03-25T09:57:26Z</time>
      </trkpt>
      <trkpt lat="49.93788" lon="5.51611">
        <ele>540</ele>
        <time>2018-03-25T09:57:38Z</time>
      </trkpt>
      <trkpt lat="49.93789" lon="5.51612">
        <ele>540</ele>
        <time>2018-03-25T09:57:48Z</time>
      </trkpt>
      <trkpt lat="49.93789" lon="5.51615">
        <ele>540</ele>
        <time>2018-03-25T09:57:58Z</time>
      </trkpt>
      <trkpt lat="49.93791" lon="5.51616">
        <ele>540</ele>
        <time>2018-03-25T09:58:09Z</time>
      </trkpt>
      <trkpt lat="49.93792" lon="5.51618">
        <ele>540</ele>
        <time>2018-03-25T09:58:19Z</time>
      </trkpt>
      <trkpt lat="49.93792" lon="5.5162">
        <ele>539</ele>
        <time>2018-03-25T09:58:30Z</time>
      </trkpt>
      <trkpt lat="49.93791" lon="5.51627">
        <ele>540</ele>
        <time>2018-03-25T09:58:40Z</time>
      </trkpt>
      <trkpt lat="49.9379" lon="5.51631">
        <ele>540</ele>
        <time>2018-03-25T09:58:50Z</time>
      </trkpt>
      <trkpt lat="49.93789" lon="5.51638">
        <ele>541</ele>
        <time>2018-03-25T09:59:00Z</time>
      </trkpt>
      <trkpt lat="49.93786" lon="5.51649">
        <ele>541</ele>
        <time>2018-03-25T09:59:11Z</time>
      </trkpt>
      <trkpt lat="49.93785" lon="5.51662">
        <ele>541</ele>
        <time>2018-03-25T09:59:22Z</time>
      </trkpt>
      <trkpt lat="49.93785" lon="5.51673">
        <ele>542</ele>
        <time>2018-03-25T09:59:32Z</time>
      </trkpt>
      <trkpt lat="49.93788" lon="5.51689">
        <ele>542</ele>
        <time>2018-03-25T09:59:43Z</time>
      </trkpt>
      <trkpt lat="49.93786" lon="5.51698">
        <ele>542</ele>
        <time>2018-03-25T09:59:53Z</time>
      </trkpt>
      <trkpt lat="49.93783" lon="5.51701">
        <ele>543</ele>
        <time>2018-03-25T10:00:04Z</time>
      </trkpt>
      <trkpt lat="49.93777" lon="5.51699">
        <ele>542</ele>
        <time>2018-03-25T10:00:14Z</time>
      </trkpt>
      <trkpt lat="49.93775" lon="5.51695">
        <ele>542</ele>
        <time>2018-03-25T10:00:24Z</time>
      </trkpt>
      <trkpt lat="49.93771" lon="5.51689">
        <ele>543</ele>
        <time>2018-03-25T10:00:35Z</time>
      </trkpt>
      <trkpt lat="49.93765" lon="5.51681">
        <ele>543</ele>
        <time>2018-03-25T10:00:45Z</time>
      </trkpt>
      <trkpt lat="49.93759" lon="5.51675">
        <ele>543</ele>
        <time>2018-03-25T10:00:56Z</time>
      </trkpt>
      <trkpt lat="49.9375" lon="5.51667">
        <ele>543</ele>
        <time>2018-03-25T10:01:06Z</time>
      </trkpt>
      <trkpt lat="49.9374" lon="5.51659">
        <ele>544</ele>
        <time>2018-03-25T10:01:17Z</time>
      </trkpt>
      <trkpt lat="49.93732" lon="5.51651">
        <ele>544</ele>
        <time>2018-03-25T10:01:27Z</time>
      </trkpt>
      <trkpt lat="49.93723" lon="5.51645">
        <ele>545</ele>
        <time>2018-03-25T10:01:38Z</time>
      </trkpt>
      <trkpt lat="49.93715" lon="5.51639">
        <ele>546</ele>
        <time>2018-03-25T10:01:49Z</time>
      </trkpt>
      <trkpt lat="49.93706" lon="5.51634">
        <ele>546</ele>
        <time>2018-03-25T10:01:59Z</time>
      </trkpt>
      <trkpt lat="49.93697" lon="5.51628">
        <ele>547</ele>
        <time>2018-03-25T10:02:09Z</time>
      </trkpt>
      <trkpt lat="49.93687" lon="5.51622">
        <ele>548</ele>
        <time>2018-03-25T10:02:20Z</time>
      </trkpt>
      <trkpt lat="49.93679" lon="5.51616">
        <ele>548</ele>
        <time>2018-03-25T10:02:30Z</time>
      </trkpt>
      <trkpt lat="49.9367" lon="5.51612">
        <ele>549</ele>
        <time>2018-03-25T10:02:40Z</time>
      </trkpt>
      <trkpt lat="49.93661" lon="5.5161">
        <ele>550</ele>
        <time>2018-03-25T10:02:51Z</time>
      </trkpt>
      <trkpt lat="49.93653" lon="5.51608">
        <ele>550</ele>
        <time>2018-03-25T10:03:01Z</time>
      </trkpt>
      <trkpt lat="49.93645" lon="5.51603">
        <ele>551</ele>
        <time>2018-03-25T10:03:12Z</time>
      </trkpt>
      <trkpt lat="49.93638" lon="5.51597">
        <ele>552</ele>
        <time>2018-03-25T10:03:22Z</time>
      </trkpt>
      <trkpt lat="49.93629" lon="5.51593">
        <ele>553</ele>
        <time>2018-03-25T10:03:33Z</time>
      </trkpt>
      <trkpt lat="49.9362" lon="5.5159">
        <ele>554</ele>
        <time>2018-03-25T10:03:43Z</time>
      </trkpt>
      <trkpt lat="49.93611" lon="5.51586">
        <ele>555</ele>
        <time>2018-03-25T10:03:53Z</time>
      </trkpt>
      <trkpt lat="49.93602" lon="5.51583">
        <ele>556</ele>
        <time>2018-03-25T10:04:04Z</time>
      </trkpt>
      <trkpt lat="49.93591" lon="5.51579">
        <ele>556</ele>
        <time>2018-03-25T10:04:15Z</time>
      </trkpt>
      <trkpt lat="49.93582" lon="5.51574">
        <ele>557</ele>
        <time>2018-03-25T10:04:25Z</time>
      </trkpt>
      <trkpt lat="49.93575" lon="5.51569">
        <ele>558</ele>
        <time>2018-03-25T10:04:35Z</time>
      </trkpt>
      <trkpt lat="49.93567" lon="5.51559">
        <ele>558</ele>
        <time>2018-03-25T10:04:46Z</time>
      </trkpt>
      <trkpt lat="49.93562" lon="5.5155">
        <ele>558</ele>
        <time>2018-03-25T10:04:56Z</time>
      </trkpt>
      <trkpt lat="49.93559" lon="5.51547">
        <ele>558</ele>
        <time>2018-03-25T10:05:07Z</time>
      </trkpt>
      <trkpt lat="49.93556" lon="5.51545">
        <ele>558</ele>
        <time>2018-03-25T10:05:17Z</time>
      </trkpt>
      <trkpt lat="49.93547" lon="5.51538">
        <ele>558</ele>
        <time>2018-03-25T10:05:27Z</time>
      </trkpt>
      <trkpt lat="49.93535" lon="5.51537">
        <ele>558</ele>
        <time>2018-03-25T10:05:37Z</time>
      </trkpt>
      <trkpt lat="49.93524" lon="5.51541">
        <ele>558</ele>
        <time>2018-03-25T10:05:47Z</time>
      </trkpt>
      <trkpt lat="49.93515" lon="5.51548">
        <ele>558</ele>
        <time>2018-03-25T10:05:58Z</time>
      </trkpt>
      <trkpt lat="49.93507" lon="5.51557">
        <ele>559</ele>
        <time>2018-03-25T10:06:08Z</time>
      </trkpt>
      <trkpt lat="49.93505" lon="5.5157">
        <ele>559</ele>
        <time>2018-03-25T10:06:18Z</time>
      </trkpt>
      <trkpt lat="49.93508" lon="5.51581">
        <ele>560</ele>
        <time>2018-03-25T10:06:29Z</time>
      </trkpt>
      <trkpt lat="49.9351" lon="5.51594">
        <ele>560</ele>
        <time>2018-03-25T10:06:40Z</time>
      </trkpt>
      <trkpt lat="49.9351" lon="5.51606">
        <ele>560</ele>
        <time>2018-03-25T10:06:51Z</time>
      </trkpt>
      <trkpt lat="49.93512" lon="5.51617">
        <ele>560</ele>
        <time>2018-03-25T10:07:01Z</time>
      </trkpt>
      <trkpt lat="49.93513" lon="5.51626">
        <ele>560</ele>
        <time>2018-03-25T10:07:11Z</time>
      </trkpt>
      <trkpt lat="49.93516" lon="5.51642">
        <ele>560</ele>
        <time>2018-03-25T10:07:22Z</time>
      </trkpt>
      <trkpt lat="49.9352" lon="5.51658">
        <ele>560</ele>
        <time>2018-03-25T10:07:33Z</time>
      </trkpt>
      <trkpt lat="49.93524" lon="5.51672">
        <ele>561</ele>
        <time>2018-03-25T10:07:44Z</time>
      </trkpt>
      <trkpt lat="49.93528" lon="5.51686">
        <ele>561</ele>
        <time>2018-03-25T10:07:55Z</time>
      </trkpt>
      <trkpt lat="49.93531" lon="5.51698">
        <ele>560</ele>
        <time>2018-03-25T10:08:06Z</time>
      </trkpt>
      <trkpt lat="49.93534" lon="5.51711">
        <ele>560</ele>
        <time>2018-03-25T10:08:16Z</time>
      </trkpt>
      <trkpt lat="49.93539" lon="5.51727">
        <ele>561</ele>
        <time>2018-03-25T10:08:27Z</time>
      </trkpt>
      <trkpt lat="49.93546" lon="5.51741">
        <ele>561</ele>
        <time>2018-03-25T10:08:37Z</time>
      </trkpt>
      <trkpt lat="49.93552" lon="5.51756">
        <ele>561</ele>
        <time>2018-03-25T10:08:48Z</time>
      </trkpt>
      <trkpt lat="49.93557" lon="5.51769">
        <ele>561</ele>
        <time>2018-03-25T10:08:58Z</time>
      </trkpt>
      <trkpt lat="49.9356" lon="5.51781">
        <ele>560</ele>
        <time>2018-03-25T10:09:08Z</time>
      </trkpt>
      <trkpt lat="49.93563" lon="5.51794">
        <ele>561</ele>
        <time>2018-03-25T10:09:19Z</time>
      </trkpt>
      <trkpt lat="49.93566" lon="5.51808">
        <ele>561</ele>
        <time>2018-03-25T10:09:30Z</time>
      </trkpt>
      <trkpt lat="49.93568" lon="5.51819">
        <ele>560</ele>
        <time>2018-03-25T10:09:40Z</time>
      </trkpt>
      <trkpt lat="49.93568" lon="5.51831">
        <ele>561</ele>
        <time>2018-03-25T10:09:51Z</time>
      </trkpt>
      <trkpt lat="49.93563" lon="5.51834">
        <ele>561</ele>
        <time>2018-03-25T10:10:02Z</time>
      </trkpt>
      <trkpt lat="49.93557" lon="5.51836">
        <ele>562</ele>
        <time>2018-03-25T10:10:12Z</time>
      </trkpt>
      <trkpt lat="49.93553" lon="5.51837">
        <ele>562</ele>
        <time>2018-03-25T10:10:23Z</time>
      </trkpt>
      <trkpt lat="49.93545" lon="5.51843">
        <ele>563</ele>
        <time>2018-03-25T10:10:34Z</time>
      </trkpt>
      <trkpt lat="49.93539" lon="5.51846">
        <ele>563</ele>
        <time>2018-03-25T10:10:44Z</time>
      </trkpt>
      <trkpt lat="49.93531" lon="5.51849">
        <ele>563</ele>
        <time>2018-03-25T10:10:54Z</time>
      </trkpt>
      <trkpt lat="49.93524" lon="5.51855">
        <ele>564</ele>
        <time>2018-03-25T10:11:05Z</time>
      </trkpt>
      <trkpt lat="49.93517" lon="5.51856">
        <ele>565</ele>
        <time>2018-03-25T10:11:16Z</time>
      </trkpt>
      <trkpt lat="49.93509" lon="5.51857">
        <ele>565</ele>
        <time>2018-03-25T10:11:26Z</time>
      </trkpt>
      <trkpt lat="49.935" lon="5.51863">
        <ele>565</ele>
        <time>2018-03-25T10:11:36Z</time>
      </trkpt>
      <trkpt lat="49.93491" lon="5.51868">
        <ele>565</ele>
        <time>2018-03-25T10:11:47Z</time>
      </trkpt>
      <trkpt lat="49.93481" lon="5.51871">
        <ele>566</ele>
        <time>2018-03-25T10:11:57Z</time>
      </trkpt>
      <trkpt lat="49.93472" lon="5.51874">
        <ele>567</ele>
        <time>2018-03-25T10:12:07Z</time>
      </trkpt>
      <trkpt lat="49.93462" lon="5.51878">
        <ele>567</ele>
        <time>2018-03-25T10:12:18Z</time>
      </trkpt>
      <trkpt lat="49.93453" lon="5.51885">
        <ele>568</ele>
        <time>2018-03-25T10:12:29Z</time>
      </trkpt>
      <trkpt lat="49.93443" lon="5.51892">
        <ele>568</ele>
        <time>2018-03-25T10:12:40Z</time>
      </trkpt>
      <trkpt lat="49.93433" lon="5.51896">
        <ele>568</ele>
        <time>2018-03-25T10:12:50Z</time>
      </trkpt>
      <trkpt lat="49.93423" lon="5.51902">
        <ele>569</ele>
        <time>2018-03-25T10:13:01Z</time>
      </trkpt>
      <trkpt lat="49.93417" lon="5.51904">
        <ele>568</ele>
        <time>2018-03-25T10:13:11Z</time>
      </trkpt>
      <trkpt lat="49.93411" lon="5.51902">
        <ele>569</ele>
        <time>2018-03-25T10:13:21Z</time>
      </trkpt>
      <trkpt lat="49.93405" lon="5.51898">
        <ele>569</ele>
        <time>2018-03-25T10:13:31Z</time>
      </trkpt>
      <trkpt lat="49.93399" lon="5.51891">
        <ele>569</ele>
        <time>2018-03-25T10:13:42Z</time>
      </trkpt>
      <trkpt lat="49.93396" lon="5.51882">
        <ele>570</ele>
        <time>2018-03-25T10:13:53Z</time>
      </trkpt>
      <trkpt lat="49.93391" lon="5.51873">
        <ele>569</ele>
        <time>2018-03-25T10:14:03Z</time>
      </trkpt>
      <trkpt lat="49.93385" lon="5.51863">
        <ele>570</ele>
        <time>2018-03-25T10:14:13Z</time>
      </trkpt>
      <trkpt lat="49.93378" lon="5.51856">
        <ele>570</ele>
        <time>2018-03-25T10:14:24Z</time>
      </trkpt>
      <trkpt lat="49.93369" lon="5.51849">
        <ele>570</ele>
        <time>2018-03-25T10:14:35Z</time>
      </trkpt>
      <trkpt lat="49.93359" lon="5.5184">
        <ele>569</ele>
        <time>2018-03-25T10:14:45Z</time>
      </trkpt>
      <trkpt lat="49.9335" lon="5.51831">
        <ele>570</ele>
        <time>2018-03-25T10:14:56Z</time>
      </trkpt>
      <trkpt lat="49.93346" lon="5.51824">
        <ele>569</ele>
        <time>2018-03-25T10:15:06Z</time>
      </trkpt>
      <trkpt lat="49.93342" lon="5.51816">
        <ele>569</ele>
        <time>2018-03-25T10:15:17Z</time>
      </trkpt>
      <trkpt lat="49.9334" lon="5.51805">
        <ele>569</ele>
        <time>2018-03-25T10:15:28Z</time>
      </trkpt>
      <trkpt lat="49.93336" lon="5.51793">
        <ele>568</ele>
        <time>2018-03-25T10:15:39Z</time>
      </trkpt>
      <trkpt lat="49.93334" lon="5.51779">
        <ele>568</ele>
        <time>2018-03-25T10:15:49Z</time>
      </trkpt>
      <trkpt lat="49.93332" lon="5.51761">
        <ele>568</ele>
        <time>2018-03-25T10:16:00Z</time>
      </trkpt>
      <trkpt lat="49.9333" lon="5.51744">
        <ele>567</ele>
        <time>2018-03-25T10:16:10Z</time>
      </trkpt>
      <trkpt lat="49.93327" lon="5.51728">
        <ele>566</ele>
        <time>2018-03-25T10:16:21Z</time>
      </trkpt>
      <trkpt lat="49.93323" lon="5.5171">
        <ele>566</ele>
        <time>2018-03-25T10:16:31Z</time>
      </trkpt>
      <trkpt lat="49.9332" lon="5.51692">
        <ele>566</ele>
        <time>2018-03-25T10:16:42Z</time>
      </trkpt>
      <trkpt lat="49.93316" lon="5.51675">
        <ele>565</ele>
        <time>2018-03-25T10:16:52Z</time>
      </trkpt>
      <trkpt lat="49.93311" lon="5.51654">
        <ele>565</ele>
        <time>2018-03-25T10:17:03Z</time>
      </trkpt>
      <trkpt lat="49.93306" lon="5.51638">
        <ele>565</ele>
        <time>2018-03-25T10:17:13Z</time>
      </trkpt>
      <trkpt lat="49.93306" lon="5.51624">
        <ele>564</ele>
        <time>2018-03-25T10:17:23Z</time>
      </trkpt>
      <trkpt lat="49.93304" lon="5.51609">
        <ele>564</ele>
        <time>2018-03-25T10:17:33Z</time>
      </trkpt>
      <trkpt lat="49.93299" lon="5.51598">
        <ele>564</ele>
        <time>2018-03-25T10:17:44Z</time>
      </trkpt>
      <trkpt lat="49.93298" lon="5.51596">
        <ele>563</ele>
        <time>2018-03-25T10:17:55Z</time>
      </trkpt>
      <trkpt lat="49.93296" lon="5.51594">
        <ele>563</ele>
        <time>2018-03-25T10:18:05Z</time>
      </trkpt>
      <trkpt lat="49.93293" lon="5.51593">
        <ele>563</ele>
        <time>2018-03-25T10:18:15Z</time>
      </trkpt>
      <trkpt lat="49.93288" lon="5.51591">
        <ele>564</ele>
        <time>2018-03-25T10:18:26Z</time>
      </trkpt>
      <trkpt lat="49.93285" lon="5.51589">
        <ele>563</ele>
        <time>2018-03-25T10:18:36Z</time>
      </trkpt>
      <trkpt lat="49.93285" lon="5.51587">
        <ele>564</ele>
        <time>2018-03-25T10:18:46Z</time>
      </trkpt>
      <trkpt lat="49.93281" lon="5.51584">
        <ele>563</ele>
        <time>2018-03-25T10:18:56Z</time>
      </trkpt>
      <trkpt lat="49.93274" lon="5.51579">
        <ele>564</ele>
        <time>2018-03-25T10:19:07Z</time>
      </trkpt>
      <trkpt lat="49.93272" lon="5.51574">
        <ele>565</ele>
        <time>2018-03-25T10:19:18Z</time>
      </trkpt>
      <trkpt lat="49.93267" lon="5.51568">
        <ele>565</ele>
        <time>2018-03-25T10:19:28Z</time>
      </trkpt>
      <trkpt lat="49.93266" lon="5.51564">
        <ele>565</ele>
        <time>2018-03-25T10:19:39Z</time>
      </trkpt>
      <trkpt lat="49.93264" lon="5.51558">
        <ele>565</ele>
        <time>2018-03-25T10:19:49Z</time>
      </trkpt>
      <trkpt lat="49.9326" lon="5.51554">
        <ele>565</ele>
        <time>2018-03-25T10:20:00Z</time>
      </trkpt>
      <trkpt lat="49.93258" lon="5.51548">
        <ele>564</ele>
        <time>2018-03-25T10:20:11Z</time>
      </trkpt>
      <trkpt lat="49.93247" lon="5.51538">
        <ele>564</ele>
        <time>2018-03-25T10:20:21Z</time>
      </trkpt>
      <trkpt lat="49.93233" lon="5.51524">
        <ele>564</ele>
        <time>2018-03-25T10:20:31Z</time>
      </trkpt>
      <trkpt lat="49.93217" lon="5.51502">
        <ele>564</ele>
        <time>2018-03-25T10:20:41Z</time>
      </trkpt>
      <trkpt lat="49.93201" lon="5.51476">
        <ele>565</ele>
        <time>2018-03-25T10:20:52Z</time>
      </trkpt>
      <trkpt lat="49.9319" lon="5.51462">
        <ele>565</ele>
        <time>2018-03-25T10:21:02Z</time>
      </trkpt>
      <trkpt lat="49.93187" lon="5.51452">
        <ele>565</ele>
        <time>2018-03-25T10:21:12Z</time>
      </trkpt>
      <trkpt lat="49.93186" lon="5.51453">
        <ele>565</ele>
        <time>2018-03-25T10:21:23Z</time>
      </trkpt>
      <trkpt lat="49.93182" lon="5.51458">
        <ele>565</ele>
        <time>2018-03-25T10:21:33Z</time>
      </trkpt>
      <trkpt lat="49.93179" lon="5.5146">
        <ele>565</ele>
        <time>2018-03-25T10:21:43Z</time>
      </trkpt>
      <trkpt lat="49.93176" lon="5.5146">
        <ele>565</ele>
        <time>2018-03-25T10:21:54Z</time>
      </trkpt>
      <trkpt lat="49.93169" lon="5.51464">
        <ele>565</ele>
        <time>2018-03-25T10:22:05Z</time>
      </trkpt>
      <trkpt lat="49.93163" lon="5.51465">
        <ele>566</ele>
        <time>2018-03-25T10:22:15Z</time>
      </trkpt>
      <trkpt lat="49.93153" lon="5.51467">
        <ele>566</ele>
        <time>2018-03-25T10:22:26Z</time>
      </trkpt>
      <trkpt lat="49.93145" lon="5.51469">
        <ele>567</ele>
        <time>2018-03-25T10:22:36Z</time>
      </trkpt>
      <trkpt lat="49.93137" lon="5.51475">
        <ele>568</ele>
        <time>2018-03-25T10:22:47Z</time>
      </trkpt>
      <trkpt lat="49.93129" lon="5.5148">
        <ele>569</ele>
        <time>2018-03-25T10:22:57Z</time>
      </trkpt>
      <trkpt lat="49.93121" lon="5.51485">
        <ele>569</ele>
        <time>2018-03-25T10:23:08Z</time>
      </trkpt>
      <trkpt lat="49.93112" lon="5.51491">
        <ele>570</ele>
        <time>2018-03-25T10:23:19Z</time>
      </trkpt>
      <trkpt lat="49.93103" lon="5.51496">
        <ele>570</ele>
        <time>2018-03-25T10:23:29Z</time>
      </trkpt>
      <trkpt lat="49.93094" lon="5.51503">
        <ele>571</ele>
        <time>2018-03-25T10:23:39Z</time>
      </trkpt>
      <trkpt lat="49.93086" lon="5.5151">
        <ele>571</ele>
        <time>2018-03-25T10:23:49Z</time>
      </trkpt>
      <trkpt lat="49.93077" lon="5.51512">
        <ele>571</ele>
        <time>2018-03-25T10:24:00Z</time>
      </trkpt>
      <trkpt lat="49.93073" lon="5.51507">
        <ele>571</ele>
        <time>2018-03-25T10:24:10Z</time>
      </trkpt>
      <trkpt lat="49.93066" lon="5.51497">
        <ele>571</ele>
        <time>2018-03-25T10:24:21Z</time>
      </trkpt>
      <trkpt lat="49.9306" lon="5.5149">
        <ele>571</ele>
        <time>2018-03-25T10:24:31Z</time>
      </trkpt>
      <trkpt lat="49.93052" lon="5.51481">
        <ele>571</ele>
        <time>2018-03-25T10:24:41Z</time>
      </trkpt>
      <trkpt lat="49.93044" lon="5.51474">
        <ele>572</ele>
        <time>2018-03-25T10:24:51Z</time>
      </trkpt>
      <trkpt lat="49.93035" lon="5.51464">
        <ele>571</ele>
        <time>2018-03-25T10:25:02Z</time>
      </trkpt>
      <trkpt lat="49.93026" lon="5.51456">
        <ele>571</ele>
        <time>2018-03-25T10:25:13Z</time>
      </trkpt>
      <trkpt lat="49.93018" lon="5.51449">
        <ele>571</ele>
        <time>2018-03-25T10:25:23Z</time>
      </trkpt>
      <trkpt lat="49.93011" lon="5.51443">
        <ele>571</ele>
        <time>2018-03-25T10:25:33Z</time>
      </trkpt>
      <trkpt lat="49.93011" lon="5.51443">
        <ele>571</ele>
        <time>2018-03-25T10:25:44Z</time>
      </trkpt>
      <trkpt lat="49.9301" lon="5.51443">
        <ele>571</ele>
        <time>2018-03-25T10:25:58Z</time>
      </trkpt>
      <trkpt lat="49.93009" lon="5.51444">
        <ele>571</ele>
        <time>2018-03-25T10:26:10Z</time>
      </trkpt>
      <trkpt lat="49.93009" lon="5.51444">
        <ele>571</ele>
        <time>2018-03-25T10:26:20Z</time>
      </trkpt>
      <trkpt lat="49.93004" lon="5.51439">
        <ele>571</ele>
        <time>2018-03-25T10:26:30Z</time>
      </trkpt>
      <trkpt lat="49.92994" lon="5.51428">
        <ele>570</ele>
        <time>2018-03-25T10:26:41Z</time>
      </trkpt>
      <trkpt lat="49.92982" lon="5.51422">
        <ele>569</ele>
        <time>2018-03-25T10:26:51Z</time>
      </trkpt>
      <trkpt lat="49.92979" lon="5.51421">
        <ele>569</ele>
        <time>2018-03-25T10:27:01Z</time>
      </trkpt>
      <trkpt lat="49.92971" lon="5.51413">
        <ele>570</ele>
        <time>2018-03-25T10:27:12Z</time>
      </trkpt>
      <trkpt lat="49.92961" lon="5.51398">
        <ele>569</ele>
        <time>2018-03-25T10:27:22Z</time>
      </trkpt>
      <trkpt lat="49.9295" lon="5.51383">
        <ele>568</ele>
        <time>2018-03-25T10:27:32Z</time>
      </trkpt>
      <trkpt lat="49.92941" lon="5.51375">
        <ele>568</ele>
        <time>2018-03-25T10:27:42Z</time>
      </trkpt>
      <trkpt lat="49.92938" lon="5.51375">
        <ele>569</ele>
        <time>2018-03-25T10:27:53Z</time>
      </trkpt>
      <trkpt lat="49.92937" lon="5.51374">
        <ele>568</ele>
        <time>2018-03-25T10:28:03Z</time>
      </trkpt>
      <trkpt lat="49.92938" lon="5.51375">
        <ele>568</ele>
        <time>2018-03-25T10:28:14Z</time>
      </trkpt>
      <trkpt lat="49.92932" lon="5.51368">
        <ele>568</ele>
        <time>2018-03-25T10:28:24Z</time>
      </trkpt>
      <trkpt lat="49.92924" lon="5.51356">
        <ele>568</ele>
        <time>2018-03-25T10:28:35Z</time>
      </trkpt>
      <trkpt lat="49.92917" lon="5.51346">
        <ele>568</ele>
        <time>2018-03-25T10:28:45Z</time>
      </trkpt>
      <trkpt lat="49.92908" lon="5.51336">
        <ele>568</ele>
        <time>2018-03-25T10:28:55Z</time>
      </trkpt>
      <trkpt lat="49.92906" lon="5.51322">
        <ele>568</ele>
        <time>2018-03-25T10:29:06Z</time>
      </trkpt>
      <trkpt lat="49.92911" lon="5.5131">
        <ele>567</ele>
        <time>2018-03-25T10:29:16Z</time>
      </trkpt>
      <trkpt lat="49.92916" lon="5.51296">
        <ele>566</ele>
        <time>2018-03-25T10:29:26Z</time>
      </trkpt>
      <trkpt lat="49.9292" lon="5.51282">
        <ele>565</ele>
        <time>2018-03-25T10:29:36Z</time>
      </trkpt>
      <trkpt lat="49.92924" lon="5.5127">
        <ele>565</ele>
        <time>2018-03-25T10:29:46Z</time>
      </trkpt>
      <trkpt lat="49.92929" lon="5.51255">
        <ele>564</ele>
        <time>2018-03-25T10:29:56Z</time>
      </trkpt>
      <trkpt lat="49.92933" lon="5.51242">
        <ele>564</ele>
        <time>2018-03-25T10:30:08Z</time>
      </trkpt>
      <trkpt lat="49.92935" lon="5.51236">
        <ele>563</ele>
        <time>2018-03-25T10:30:28Z</time>
      </trkpt>
      <trkpt lat="49.9294" lon="5.51222">
        <ele>564</ele>
        <time>2018-03-25T10:30:38Z</time>
      </trkpt>
      <trkpt lat="49.92947" lon="5.51202">
        <ele>563</ele>
        <time>2018-03-25T10:30:49Z</time>
      </trkpt>
      <trkpt lat="49.92952" lon="5.51186">
        <ele>562</ele>
        <time>2018-03-25T10:30:59Z</time>
      </trkpt>
      <trkpt lat="49.92952" lon="5.51183">
        <ele>562</ele>
        <time>2018-03-25T10:31:09Z</time>
      </trkpt>
      <trkpt lat="49.92951" lon="5.51183">
        <ele>562</ele>
        <time>2018-03-25T10:31:20Z</time>
      </trkpt>
      <trkpt lat="49.92955" lon="5.51173">
        <ele>562</ele>
        <time>2018-03-25T10:31:30Z</time>
      </trkpt>
      <trkpt lat="49.92962" lon="5.51152">
        <ele>561</ele>
        <time>2018-03-25T10:31:41Z</time>
      </trkpt>
      <trkpt lat="49.9297" lon="5.51131">
        <ele>560</ele>
        <time>2018-03-25T10:31:51Z</time>
      </trkpt>
      <trkpt lat="49.92976" lon="5.51115">
        <ele>560</ele>
        <time>2018-03-25T10:32:02Z</time>
      </trkpt>
      <trkpt lat="49.92981" lon="5.51099">
        <ele>559</ele>
        <time>2018-03-25T10:32:12Z</time>
      </trkpt>
      <trkpt lat="49.92987" lon="5.51082">
        <ele>558</ele>
        <time>2018-03-25T10:32:23Z</time>
      </trkpt>
      <trkpt lat="49.92992" lon="5.51065">
        <ele>558</ele>
        <time>2018-03-25T10:32:33Z</time>
      </trkpt>
      <trkpt lat="49.92998" lon="5.51047">
        <ele>558</ele>
        <time>2018-03-25T10:32:44Z</time>
      </trkpt>
      <trkpt lat="49.93002" lon="5.51031">
        <ele>557</ele>
        <time>2018-03-25T10:32:54Z</time>
      </trkpt>
      <trkpt lat="49.93005" lon="5.51013">
        <ele>556</ele>
        <time>2018-03-25T10:33:04Z</time>
      </trkpt>
      <trkpt lat="49.93008" lon="5.50992">
        <ele>555</ele>
        <time>2018-03-25T10:33:15Z</time>
      </trkpt>
      <trkpt lat="49.93009" lon="5.50972">
        <ele>553</ele>
        <time>2018-03-25T10:33:26Z</time>
      </trkpt>
      <trkpt lat="49.9301" lon="5.50954">
        <ele>552</ele>
        <time>2018-03-25T10:33:36Z</time>
      </trkpt>
      <trkpt lat="49.93011" lon="5.50936">
        <ele>552</ele>
        <time>2018-03-25T10:33:47Z</time>
      </trkpt>
      <trkpt lat="49.93011" lon="5.50918">
        <ele>550</ele>
        <time>2018-03-25T10:33:57Z</time>
      </trkpt>
      <trkpt lat="49.93012" lon="5.509">
        <ele>548</ele>
        <time>2018-03-25T10:34:07Z</time>
      </trkpt>
      <trkpt lat="49.93013" lon="5.50883">
        <ele>547</ele>
        <time>2018-03-25T10:34:17Z</time>
      </trkpt>
      <trkpt lat="49.93014" lon="5.50864">
        <ele>546</ele>
        <time>2018-03-25T10:34:27Z</time>
      </trkpt>
      <trkpt lat="49.93016" lon="5.50845">
        <ele>544</ele>
        <time>2018-03-25T10:34:38Z</time>
      </trkpt>
      <trkpt lat="49.93017" lon="5.50826">
        <ele>544</ele>
        <time>2018-03-25T10:34:48Z</time>
      </trkpt>
      <trkpt lat="49.93019" lon="5.50808">
        <ele>543</ele>
        <time>2018-03-25T10:34:58Z</time>
      </trkpt>
      <trkpt lat="49.93022" lon="5.50787">
        <ele>543</ele>
        <time>2018-03-25T10:35:09Z</time>
      </trkpt>
      <trkpt lat="49.93025" lon="5.50769">
        <ele>542</ele>
        <time>2018-03-25T10:35:19Z</time>
      </trkpt>
      <trkpt lat="49.93029" lon="5.50752">
        <ele>541</ele>
        <time>2018-03-25T10:35:29Z</time>
      </trkpt>
      <trkpt lat="49.93037" lon="5.50739">
        <ele>541</ele>
        <time>2018-03-25T10:35:40Z</time>
      </trkpt>
      <trkpt lat="49.93046" lon="5.50728">
        <ele>541</ele>
        <time>2018-03-25T10:35:50Z</time>
      </trkpt>
      <trkpt lat="49.93054" lon="5.50716">
        <ele>541</ele>
        <time>2018-03-25T10:36:00Z</time>
      </trkpt>
      <trkpt lat="49.93061" lon="5.50701">
        <ele>540</ele>
        <time>2018-03-25T10:36:11Z</time>
      </trkpt>
      <trkpt lat="49.93067" lon="5.50687">
        <ele>540</ele>
        <time>2018-03-25T10:36:21Z</time>
      </trkpt>
      <trkpt lat="49.93073" lon="5.50671">
        <ele>539</ele>
        <time>2018-03-25T10:36:32Z</time>
      </trkpt>
      <trkpt lat="49.93079" lon="5.50654">
        <ele>539</ele>
        <time>2018-03-25T10:36:43Z</time>
      </trkpt>
      <trkpt lat="49.93084" lon="5.50638">
        <ele>539</ele>
        <time>2018-03-25T10:36:53Z</time>
      </trkpt>
      <trkpt lat="49.93089" lon="5.50621">
        <ele>539</ele>
        <time>2018-03-25T10:37:04Z</time>
      </trkpt>
      <trkpt lat="49.93093" lon="5.50606">
        <ele>539</ele>
        <time>2018-03-25T10:37:15Z</time>
      </trkpt>
      <trkpt lat="49.93098" lon="5.50594">
        <ele>539</ele>
        <time>2018-03-25T10:37:25Z</time>
      </trkpt>
      <trkpt lat="49.93104" lon="5.50579">
        <ele>539</ele>
        <time>2018-03-25T10:37:36Z</time>
      </trkpt>
      <trkpt lat="49.93111" lon="5.50564">
        <ele>539</ele>
        <time>2018-03-25T10:37:47Z</time>
      </trkpt>
      <trkpt lat="49.93117" lon="5.50548">
        <ele>539</ele>
        <time>2018-03-25T10:37:58Z</time>
      </trkpt>
      <trkpt lat="49.93122" lon="5.50533">
        <ele>538</ele>
        <time>2018-03-25T10:38:09Z</time>
      </trkpt>
      <trkpt lat="49.93126" lon="5.50523">
        <ele>538</ele>
        <time>2018-03-25T10:38:19Z</time>
      </trkpt>
      <trkpt lat="49.93131" lon="5.50508">
        <ele>538</ele>
        <time>2018-03-25T10:38:29Z</time>
      </trkpt>
      <trkpt lat="49.93136" lon="5.50493">
        <ele>537</ele>
        <time>2018-03-25T10:38:39Z</time>
      </trkpt>
      <trkpt lat="49.93141" lon="5.50478">
        <ele>537</ele>
        <time>2018-03-25T10:38:49Z</time>
      </trkpt>
      <trkpt lat="49.93147" lon="5.50463">
        <ele>537</ele>
        <time>2018-03-25T10:38:59Z</time>
      </trkpt>
      <trkpt lat="49.93153" lon="5.5045">
        <ele>537</ele>
        <time>2018-03-25T10:39:09Z</time>
      </trkpt>
      <trkpt lat="49.93158" lon="5.50434">
        <ele>537</ele>
        <time>2018-03-25T10:39:19Z</time>
      </trkpt>
      <trkpt lat="49.93161" lon="5.50419">
        <ele>536</ele>
        <time>2018-03-25T10:39:29Z</time>
      </trkpt>
      <trkpt lat="49.93162" lon="5.504">
        <ele>536</ele>
        <time>2018-03-25T10:39:40Z</time>
      </trkpt>
      <trkpt lat="49.93161" lon="5.50384">
        <ele>536</ele>
        <time>2018-03-25T10:39:50Z</time>
      </trkpt>
      <trkpt lat="49.9316" lon="5.50367">
        <ele>536</ele>
        <time>2018-03-25T10:40:00Z</time>
      </trkpt>
      <trkpt lat="49.9316" lon="5.50349">
        <ele>536</ele>
        <time>2018-03-25T10:40:11Z</time>
      </trkpt>
      <trkpt lat="49.93159" lon="5.50333">
        <ele>535</ele>
        <time>2018-03-25T10:40:21Z</time>
      </trkpt>
      <trkpt lat="49.93157" lon="5.50316">
        <ele>535</ele>
        <time>2018-03-25T10:40:31Z</time>
      </trkpt>
      <trkpt lat="49.93156" lon="5.50297">
        <ele>535</ele>
        <time>2018-03-25T10:40:42Z</time>
      </trkpt>
      <trkpt lat="49.93159" lon="5.50281">
        <ele>536</ele>
        <time>2018-03-25T10:40:52Z</time>
      </trkpt>
      <trkpt lat="49.93167" lon="5.50271">
        <ele>536</ele>
        <time>2018-03-25T10:41:02Z</time>
      </trkpt>
      <trkpt lat="49.93177" lon="5.50263">
        <ele>536</ele>
        <time>2018-03-25T10:41:13Z</time>
      </trkpt>
      <trkpt lat="49.93187" lon="5.50256">
        <ele>535</ele>
        <time>2018-03-25T10:41:24Z</time>
      </trkpt>
      <trkpt lat="49.93197" lon="5.50249">
        <ele>535</ele>
        <time>2018-03-25T10:41:34Z</time>
      </trkpt>
      <trkpt lat="49.93205" lon="5.50241">
        <ele>535</ele>
        <time>2018-03-25T10:41:44Z</time>
      </trkpt>
      <trkpt lat="49.93214" lon="5.50234">
        <ele>535</ele>
        <time>2018-03-25T10:41:54Z</time>
      </trkpt>
      <trkpt lat="49.93224" lon="5.50224">
        <ele>535</ele>
        <time>2018-03-25T10:42:05Z</time>
      </trkpt>
      <trkpt lat="49.93231" lon="5.50215">
        <ele>534</ele>
        <time>2018-03-25T10:42:15Z</time>
      </trkpt>
      <trkpt lat="49.9324" lon="5.50204">
        <ele>534</ele>
        <time>2018-03-25T10:42:26Z</time>
      </trkpt>
      <trkpt lat="49.93246" lon="5.50193">
        <ele>534</ele>
        <time>2018-03-25T10:42:36Z</time>
      </trkpt>
      <trkpt lat="49.93254" lon="5.5018">
        <ele>534</ele>
        <time>2018-03-25T10:42:47Z</time>
      </trkpt>
      <trkpt lat="49.9326" lon="5.50168">
        <ele>534</ele>
        <time>2018-03-25T10:42:57Z</time>
      </trkpt>
      <trkpt lat="49.93268" lon="5.50156">
        <ele>534</ele>
        <time>2018-03-25T10:43:08Z</time>
      </trkpt>
      <trkpt lat="49.93275" lon="5.50145">
        <ele>534</ele>
        <time>2018-03-25T10:43:18Z</time>
      </trkpt>
      <trkpt lat="49.93283" lon="5.50134">
        <ele>534</ele>
        <time>2018-03-25T10:43:29Z</time>
      </trkpt>
      <trkpt lat="49.93291" lon="5.50125">
        <ele>533</ele>
        <time>2018-03-25T10:43:39Z</time>
      </trkpt>
      <trkpt lat="49.93299" lon="5.50116">
        <ele>534</ele>
        <time>2018-03-25T10:43:49Z</time>
      </trkpt>
      <trkpt lat="49.93308" lon="5.50108">
        <ele>533</ele>
        <time>2018-03-25T10:43:59Z</time>
      </trkpt>
      <trkpt lat="49.93315" lon="5.501">
        <ele>534</ele>
        <time>2018-03-25T10:44:09Z</time>
      </trkpt>
      <trkpt lat="49.93323" lon="5.50091">
        <ele>534</ele>
        <time>2018-03-25T10:44:19Z</time>
      </trkpt>
      <trkpt lat="49.93331" lon="5.50081">
        <ele>534</ele>
        <time>2018-03-25T10:44:30Z</time>
      </trkpt>
      <trkpt lat="49.93339" lon="5.50072">
        <ele>534</ele>
        <time>2018-03-25T10:44:40Z</time>
      </trkpt>
      <trkpt lat="49.93346" lon="5.50063">
        <ele>534</ele>
        <time>2018-03-25T10:44:50Z</time>
      </trkpt>
      <trkpt lat="49.93354" lon="5.50052">
        <ele>534</ele>
        <time>2018-03-25T10:45:01Z</time>
      </trkpt>
      <trkpt lat="49.93361" lon="5.50042">
        <ele>534</ele>
        <time>2018-03-25T10:45:12Z</time>
      </trkpt>
      <trkpt lat="49.93367" lon="5.50033">
        <ele>535</ele>
        <time>2018-03-25T10:45:22Z</time>
      </trkpt>
      <trkpt lat="49.93375" lon="5.50022">
        <ele>536</ele>
        <time>2018-03-25T10:45:33Z</time>
      </trkpt>
      <trkpt lat="49.93382" lon="5.50012">
        <ele>536</ele>
        <time>2018-03-25T10:45:43Z</time>
      </trkpt>
      <trkpt lat="49.93389" lon="5.49999">
        <ele>536</ele>
        <time>2018-03-25T10:45:54Z</time>
      </trkpt>
      <trkpt lat="49.93395" lon="5.49988">
        <ele>536</ele>
        <time>2018-03-25T10:46:04Z</time>
      </trkpt>
      <trkpt lat="49.934" lon="5.49974">
        <ele>535</ele>
        <time>2018-03-25T10:46:15Z</time>
      </trkpt>
      <trkpt lat="49.93404" lon="5.4996">
        <ele>535</ele>
        <time>2018-03-25T10:46:26Z</time>
      </trkpt>
      <trkpt lat="49.93407" lon="5.49946">
        <ele>534</ele>
        <time>2018-03-25T10:46:36Z</time>
      </trkpt>
      <trkpt lat="49.93408" lon="5.49937">
        <ele>534</ele>
        <time>2018-03-25T10:46:46Z</time>
      </trkpt>
      <trkpt lat="49.9341" lon="5.49922">
        <ele>534</ele>
        <time>2018-03-25T10:46:57Z</time>
      </trkpt>
      <trkpt lat="49.93412" lon="5.49906">
        <ele>533</ele>
        <time>2018-03-25T10:47:08Z</time>
      </trkpt>
      <trkpt lat="49.93414" lon="5.4989">
        <ele>532</ele>
        <time>2018-03-25T10:47:18Z</time>
      </trkpt>
      <trkpt lat="49.93415" lon="5.49873">
        <ele>532</ele>
        <time>2018-03-25T10:47:29Z</time>
      </trkpt>
      <trkpt lat="49.93417" lon="5.49856">
        <ele>531</ele>
        <time>2018-03-25T10:47:40Z</time>
      </trkpt>
      <trkpt lat="49.93417" lon="5.49839">
        <ele>531</ele>
        <time>2018-03-25T10:47:50Z</time>
      </trkpt>
      <trkpt lat="49.93419" lon="5.49821">
        <ele>530</ele>
        <time>2018-03-25T10:48:01Z</time>
      </trkpt>
      <trkpt lat="49.9342" lon="5.49805">
        <ele>529</ele>
        <time>2018-03-25T10:48:11Z</time>
      </trkpt>
      <trkpt lat="49.93422" lon="5.49788">
        <ele>529</ele>
        <time>2018-03-25T10:48:21Z</time>
      </trkpt>
      <trkpt lat="49.93425" lon="5.49769">
        <ele>528</ele>
        <time>2018-03-25T10:48:32Z</time>
      </trkpt>
      <trkpt lat="49.93427" lon="5.4975">
        <ele>527</ele>
        <time>2018-03-25T10:48:43Z</time>
      </trkpt>
      <trkpt lat="49.93427" lon="5.49731">
        <ele>527</ele>
        <time>2018-03-25T10:48:54Z</time>
      </trkpt>
      <trkpt lat="49.93426" lon="5.49724">
        <ele>526</ele>
        <time>2018-03-25T10:49:04Z</time>
      </trkpt>
      <trkpt lat="49.9342" lon="5.4971">
        <ele>527</ele>
        <time>2018-03-25T10:49:15Z</time>
      </trkpt>
      <trkpt lat="49.93412" lon="5.49695">
        <ele>526</ele>
        <time>2018-03-25T10:49:26Z</time>
      </trkpt>
      <trkpt lat="49.93407" lon="5.49685">
        <ele>526</ele>
        <time>2018-03-25T10:49:36Z</time>
      </trkpt>
      <trkpt lat="49.93406" lon="5.49682">
        <ele>526</ele>
        <time>2018-03-25T10:49:47Z</time>
      </trkpt>
      <trkpt lat="49.93402" lon="5.49672">
        <ele>527</ele>
        <time>2018-03-25T10:49:57Z</time>
      </trkpt>
      <trkpt lat="49.93396" lon="5.49661">
        <ele>526</ele>
        <time>2018-03-25T10:50:07Z</time>
      </trkpt>
      <trkpt lat="49.93391" lon="5.49647">
        <ele>526</ele>
        <time>2018-03-25T10:50:18Z</time>
      </trkpt>
      <trkpt lat="49.93386" lon="5.49634">
        <ele>526</ele>
        <time>2018-03-25T10:50:29Z</time>
      </trkpt>
      <trkpt lat="49.9338" lon="5.4962">
        <ele>526</ele>
        <time>2018-03-25T10:50:39Z</time>
      </trkpt>
      <trkpt lat="49.93375" lon="5.49607">
        <ele>525</ele>
        <time>2018-03-25T10:50:50Z</time>
      </trkpt>
      <trkpt lat="49.93371" lon="5.49599">
        <ele>525</ele>
        <time>2018-03-25T10:51:01Z</time>
      </trkpt>
      <trkpt lat="49.93366" lon="5.49588">
        <ele>525</ele>
        <time>2018-03-25T10:51:11Z</time>
      </trkpt>
      <trkpt lat="49.93361" lon="5.49575">
        <ele>525</ele>
        <time>2018-03-25T10:51:21Z</time>
      </trkpt>
      <trkpt lat="49.93356" lon="5.49564">
        <ele>525</ele>
        <time>2018-03-25T10:51:32Z</time>
      </trkpt>
      <trkpt lat="49.93352" lon="5.49551">
        <ele>525</ele>
        <time>2018-03-25T10:51:42Z</time>
      </trkpt>
      <trkpt lat="49.93348" lon="5.49537">
        <ele>524</ele>
        <time>2018-03-25T10:51:52Z</time>
      </trkpt>
      <trkpt lat="49.93347" lon="5.49522">
        <ele>524</ele>
        <time>2018-03-25T10:52:03Z</time>
      </trkpt>
      <trkpt lat="49.93344" lon="5.49508">
        <ele>524</ele>
        <time>2018-03-25T10:52:13Z</time>
      </trkpt>
      <trkpt lat="49.93341" lon="5.49493">
        <ele>524</ele>
        <time>2018-03-25T10:52:23Z</time>
      </trkpt>
      <trkpt lat="49.93338" lon="5.49478">
        <ele>524</ele>
        <time>2018-03-25T10:52:34Z</time>
      </trkpt>
      <trkpt lat="49.93335" lon="5.49464">
        <ele>524</ele>
        <time>2018-03-25T10:52:44Z</time>
      </trkpt>
      <trkpt lat="49.93331" lon="5.49449">
        <ele>523</ele>
        <time>2018-03-25T10:52:54Z</time>
      </trkpt>
      <trkpt lat="49.93328" lon="5.49434">
        <ele>523</ele>
        <time>2018-03-25T10:53:04Z</time>
      </trkpt>
      <trkpt lat="49.93324" lon="5.49419">
        <ele>523</ele>
        <time>2018-03-25T10:53:15Z</time>
      </trkpt>
      <trkpt lat="49.93322" lon="5.49407">
        <ele>524</ele>
        <time>2018-03-25T10:53:25Z</time>
      </trkpt>
      <trkpt lat="49.93319" lon="5.49391">
        <ele>524</ele>
        <time>2018-03-25T10:53:36Z</time>
      </trkpt>
      <trkpt lat="49.93314" lon="5.49379">
        <ele>523</ele>
        <time>2018-03-25T10:53:47Z</time>
      </trkpt>
      <trkpt lat="49.93308" lon="5.49365">
        <ele>524</ele>
        <time>2018-03-25T10:53:57Z</time>
      </trkpt>
      <trkpt lat="49.93303" lon="5.49354">
        <ele>525</ele>
        <time>2018-03-25T10:54:08Z</time>
      </trkpt>
      <trkpt lat="49.93293" lon="5.49348">
        <ele>525</ele>
        <time>2018-03-25T10:54:18Z</time>
      </trkpt>
      <trkpt lat="49.93289" lon="5.4935">
        <ele>525</ele>
        <time>2018-03-25T10:54:29Z</time>
      </trkpt>
      <trkpt lat="49.93288" lon="5.49349">
        <ele>525</ele>
        <time>2018-03-25T10:54:39Z</time>
      </trkpt>
      <trkpt lat="49.93288" lon="5.49348">
        <ele>525</ele>
        <time>2018-03-25T10:54:50Z</time>
      </trkpt>
      <trkpt lat="49.93288" lon="5.49348">
        <ele>525</ele>
        <time>2018-03-25T10:55:03Z</time>
      </trkpt>
      <trkpt lat="49.93287" lon="5.49349">
        <ele>525</ele>
        <time>2018-03-25T10:55:13Z</time>
      </trkpt>
      <trkpt lat="49.93287" lon="5.49349">
        <ele>525</ele>
        <time>2018-03-25T10:55:23Z</time>
      </trkpt>
      <trkpt lat="49.93286" lon="5.4935">
        <ele>525</ele>
        <time>2018-03-25T10:55:35Z</time>
      </trkpt>
      <trkpt lat="49.93286" lon="5.4935">
        <ele>525</ele>
        <time>2018-03-25T10:55:45Z</time>
      </trkpt>
      <trkpt lat="49.93287" lon="5.49351">
        <ele>525</ele>
        <time>2018-03-25T10:55:58Z</time>
      </trkpt>
      <trkpt lat="49.93287" lon="5.49351">
        <ele>525</ele>
        <time>2018-03-25T10:56:09Z</time>
      </trkpt>
      <trkpt lat="49.93287" lon="5.49352">
        <ele>525</ele>
        <time>2018-03-25T10:56:20Z</time>
      </trkpt>
      <trkpt lat="49.93287" lon="5.49352">
        <ele>525</ele>
        <time>2018-03-25T10:56:33Z</time>
      </trkpt>
      <trkpt lat="49.93286" lon="5.49352">
        <ele>525</ele>
        <time>2018-03-25T10:56:44Z</time>
      </trkpt>
      <trkpt lat="49.93287" lon="5.49351">
        <ele>525</ele>
        <time>2018-03-25T10:56:56Z</time>
      </trkpt>
      <trkpt lat="49.93287" lon="5.4935">
        <ele>525</ele>
        <time>2018-03-25T10:57:06Z</time>
      </trkpt>
      <trkpt lat="49.93287" lon="5.4935">
        <ele>525</ele>
        <time>2018-03-25T10:57:17Z</time>
      </trkpt>
      <trkpt lat="49.93287" lon="5.49349">
        <ele>526</ele>
        <time>2018-03-25T10:57:28Z</time>
      </trkpt>
      <trkpt lat="49.93287" lon="5.49348">
        <ele>525</ele>
        <time>2018-03-25T10:57:38Z</time>
      </trkpt>
      <trkpt lat="49.93287" lon="5.49348">
        <ele>525</ele>
        <time>2018-03-25T10:57:50Z</time>
      </trkpt>
      <trkpt lat="49.93285" lon="5.49351">
        <ele>526</ele>
        <time>2018-03-25T10:58:00Z</time>
      </trkpt>
      <trkpt lat="49.93283" lon="5.49352">
        <ele>526</ele>
        <time>2018-03-25T10:58:10Z</time>
      </trkpt>
      <trkpt lat="49.93275" lon="5.4936">
        <ele>526</ele>
        <time>2018-03-25T10:58:20Z</time>
      </trkpt>
      <trkpt lat="49.93266" lon="5.49369">
        <ele>527</ele>
        <time>2018-03-25T10:58:31Z</time>
      </trkpt>
      <trkpt lat="49.93259" lon="5.49374">
        <ele>527</ele>
        <time>2018-03-25T10:58:42Z</time>
      </trkpt>
      <trkpt lat="49.93258" lon="5.49373">
        <ele>528</ele>
        <time>2018-03-25T10:58:52Z</time>
      </trkpt>
      <trkpt lat="49.93254" lon="5.49381">
        <ele>528</ele>
        <time>2018-03-25T10:59:03Z</time>
      </trkpt>
      <trkpt lat="49.93253" lon="5.49383">
        <ele>529</ele>
        <time>2018-03-25T10:59:13Z</time>
      </trkpt>
      <trkpt lat="49.93251" lon="5.49385">
        <ele>528</ele>
        <time>2018-03-25T10:59:24Z</time>
      </trkpt>
      <trkpt lat="49.9325" lon="5.49387">
        <ele>528</ele>
        <time>2018-03-25T10:59:34Z</time>
      </trkpt>
      <trkpt lat="49.93248" lon="5.49389">
        <ele>528</ele>
        <time>2018-03-25T10:59:45Z</time>
      </trkpt>
      <trkpt lat="49.93249" lon="5.49388">
        <ele>528</ele>
        <time>2018-03-25T10:59:55Z</time>
      </trkpt>
      <trkpt lat="49.93248" lon="5.49389">
        <ele>528</ele>
        <time>2018-03-25T11:00:05Z</time>
      </trkpt>
      <trkpt lat="49.93246" lon="5.4939">
        <ele>528</ele>
        <time>2018-03-25T11:00:16Z</time>
      </trkpt>
      <trkpt lat="49.93247" lon="5.49389">
        <ele>528</ele>
        <time>2018-03-25T11:00:27Z</time>
      </trkpt>
      <trkpt lat="49.93247" lon="5.49388">
        <ele>528</ele>
        <time>2018-03-25T11:00:39Z</time>
      </trkpt>
      <trkpt lat="49.93249" lon="5.49385">
        <ele>528</ele>
        <time>2018-03-25T11:00:49Z</time>
      </trkpt>
      <trkpt lat="49.93242" lon="5.49387">
        <ele>529</ele>
        <time>2018-03-25T11:01:00Z</time>
      </trkpt>
      <trkpt lat="49.93234" lon="5.49394">
        <ele>530</ele>
        <time>2018-03-25T11:01:11Z</time>
      </trkpt>
      <trkpt lat="49.93224" lon="5.49394">
        <ele>531</ele>
        <time>2018-03-25T11:01:22Z</time>
      </trkpt>
      <trkpt lat="49.93223" lon="5.49393">
        <ele>530</ele>
        <time>2018-03-25T11:01:23Z</time>
      </trkpt>
    </trkseg>
  </trk>
</gpx>